Kamrar, IA (50132)

9:21 PM CST on December 20, 2014 (GMT -0600)
Rural Stanhope | Change Station
CLOSE
Current Station
Personal Weather Station
Location: Stanhope, IA
Elevation: 1080 ft
Nearby Weather Stations

Elev 1080 ft 42.25 °N, 93.74 °W | Updated 1 second ago

Overcast
Overcast
32.9 °F
Feels Like 28 °F
N
5.4
Wind Variable Wind from SE
Gusts 5.4 mph

Today
High -- | Low -- °F
--% Chance of Precip.
Yesterday
High -- | Low -- °F
Precip. -- in
7:40 AM 4:44 PM
Waning Crescent, 1% visible
Pressure 30.09 in
Visibility 2.5 miles
Clouds Overcast 300 ft
Windchill 28 °F
Dew Point 33 °F
Humidity 99%
Rainfall 0.00 in
Snow Depth Not available.
UV 0 out of 12
Pollen .10 out of 12
Air Quality Not available.
Flu Activity Not available.
METAR KCAV 210255Z AUTO 16007KT 2 1/2SM BR OVC003 00/00 A3009 RMK AO2

More Conditions Fewer Conditions

Pressure 30.09 in
Visibility 2.5 miles
Clouds Overcast 300 ft
Windchill 28 °F
Dew Point 33 °F
Humidity 99%
Rainfall 0.00 in
Snow Depth Not available.
UV 0 out of 12
Pollen .10 out of 12
Air Quality Not available.
Flu Activity Not available.
METAR KCAV 210255Z AUTO 16007KT 2 1/2SM BR OVC003 00/00 A3009 RMK AO2

More Conditions Fewer Conditions

10-Day Weather Forecast

Almanac

Astronomy

Dec. 20, 2014 Rise Set
Actual Time
Civil Twilight
Nautical Twilight
Astronomical Twilight
Moon
Length of Visible Light
Length of Day
Tomorrow will be .
, % of the Moon is Illuminated

Today's Extremes

State Highs State Lows

Community

WunderPhotos

Upload Photos

1,779,352 photos uploaded!

WunderBlogs® & News

Nearby

Air Quality

  Air Quality AQ Index Pollutant
Not available.

Snow Depth

Station Depth Elevation

Earthquake Activity

City Distance Mag. Time & Date
Minimum magnitude displayed is 2.5.

Coastal Water Temperatures

Place Temperature

Nearby Weather Stations